sensor_id;sensor_type;location;lat;lon;timestamp;pressure;altitude;pressure_sealevel;temperature;humidity
55604;BME280;41468;48.838;9.330;2023-05-23T00:00:00;98117.97;;;18.33;92.71
55604;BME280;41468;48.838;9.330;2023-05-23T00:02:27;98114.06;;;18.31;93.08
55604;BME280;41468;48.838;9.330;2023-05-23T00:04:54;98118.75;;;18.34;93.41
55604;BME280;41468;48.838;9.330;2023-05-23T00:07:24;98128.38;;;18.26;94.12
55604;BME280;41468;48.838;9.330;2023-05-23T00:09:51;98117.38;;;18.22;94.49
55604;BME280;41468;48.838;9.330;2023-05-23T00:12:18;98115.19;;;18.14;95.50
55604;BME280;41468;48.838;9.330;2023-05-23T00:14:45;98111.34;;;18.07;95.88
55604;BME280;41468;48.838;9.330;2023-05-23T00:17:13;98119.69;;;18.04;96.38
55604;BME280;41468;48.838;9.330;2023-05-23T00:19:39;98124.81;;;18.05;95.81
55604;BME280;41468;48.838;9.330;2023-05-23T00:22:17;98122.16;;;17.98;97.28
55604;BME280;41468;48.838;9.330;2023-05-23T00:24:44;98116.56;;;18.02;97.20
55604;BME280;41468;48.838;9.330;2023-05-23T00:27:10;98119.41;;;17.98;97.95
55604;BME280;41468;48.838;9.330;2023-05-23T00:29:37;98117.91;;;17.94;98.98
55604;BME280;41468;48.838;9.330;2023-05-23T00:32:04;98120.25;;;17.95;99.10
55604;BME280;41468;48.838;9.330;2023-05-23T00:34:31;98118.81;;;17.87;100.00
55604;BME280;41468;48.838;9.330;2023-05-23T00:36:57;98130.63;;;17.87;99.89
55604;BME280;41468;48.838;9.330;2023-05-23T00:39:25;98124.81;;;17.78;100.00
55604;BME280;41468;48.838;9.330;2023-05-23T00:41:51;98131.25;;;17.72;100.00
55604;BME280;41468;48.838;9.330;2023-05-23T00:44:19;98127.59;;;17.78;100.00
55604;BME280;41468;48.838;9.330;2023-05-23T00:46:52;98131.34;;;17.68;100.00
55604;BME280;41468;48.838;9.330;2023-05-23T00:49:20;98124.66;;;17.65;100.00
55604;BME280;41468;48.838;9.330;2023-05-23T00:51:47;98135.56;;;17.73;100.00
55604;BME280;41468;48.838;9.330;2023-05-23T00:54:21;98129.88;;;17.60;100.00
55604;BME280;41468;48.838;9.330;2023-05-23T00:56:49;98131.06;;;17.59;100.00
55604;BME280;41468;48.838;9.330;2023-05-23T00:59:16;98130.22;;;17.62;100.00
55604;BME280;41468;48.838;9.330;2023-05-23T01:01:43;98140.50;;;17.61;100.00
55604;BME280;41468;48.838;9.330;2023-05-23T01:04:13;98135.06;;;17.54;100.00
55604;BME280;41468;48.838;9.330;2023-05-23T01:06:42;98146.97;;;17.51;100.00
55604;BME280;41468;48.838;9.330;2023-05-23T01:09:14;98145.34;;;17.54;100.00
55604;BME280;41468;48.838;9.330;2023-05-23T01:12:32;98147.69;;;17.55;100.00
55604;BME280;41468;48.838;9.330;2023-05-23T01:15:10;98148.47;;;17.56;100.00
55604;BME280;41468;48.838;9.330;2023-05-23T01:17:44;98148.41;;;17.59;100.00
55604;BME280;41468;48.838;9.330;2023-05-23T01:20:23;98147.31;;;17.53;100.00
55604;BME280;41468;48.838;9.330;2023-05-23T01:28:11;98140.88;;;17.36;100.00
55604;BME280;41468;48.838;9.330;2023-05-23T01:30:40;98144.72;;;17.42;100.00
55604;BME280;41468;48.838;9.330;2023-05-23T01:33:10;98144.78;;;17.39;100.00
55604;BME280;41468;48.838;9.330;2023-05-23T01:35:39;98141.34;;;17.31;100.00
55604;BME280;41468;48.838;9.330;2023-05-23T01:38:09;98138.91;;;17.37;100.00
55604;BME280;41468;48.838;9.330;2023-05-23T01:40:36;98135.31;;;17.40;100.00
55604;BME280;41468;48.838;9.330;2023-05-23T01:43:03;98139.38;;;17.32;100.00
55604;BME280;41468;48.838;9.330;2023-05-23T01:45:30;98137.13;;;17.23;100.00
55604;BME280;41468;48.838;9.330;2023-05-23T01:47:57;98142.59;;;17.27;100.00
55604;BME280;41468;48.838;9.330;2023-05-23T01:50:25;98139.63;;;17.14;100.00
55604;BME280;41468;48.838;9.330;2023-05-23T01:52:52;98143.00;;;16.98;100.00
55604;BME280;41468;48.838;9.330;2023-05-23T01:55:21;98145.22;;;16.80;100.00
55604;BME280;41468;48.838;9.330;2023-05-23T01:57:55;98153.50;;;16.80;100.00
55604;BME280;41468;48.838;9.330;2023-05-23T02:00:23;98146.47;;;16.71;100.00
55604;BME280;41468;48.838;9.330;2023-05-23T02:03:01;98147.03;;;16.90;100.00
55604;BME280;41468;48.838;9.330;2023-05-23T02:05:28;98141.72;;;16.72;100.00
55604;BME280;41468;48.838;9.330;2023-05-23T02:07:55;98146.94;;;16.66;100.00
55604;BME280;41468;48.838;9.330;2023-05-23T02:10:22;98151.94;;;16.75;100.00
55604;BME280;41468;48.838;9.330;2023-05-23T02:12:49;98151.78;;;16.55;100.00
55604;BME280;41468;48.838;9.330;2023-05-23T02:15:16;98148.97;;;16.59;100.00
55604;BME280;41468;48.838;9.330;2023-05-23T02:17:43;98149.75;;;16.59;100.00
55604;BME280;41468;48.838;9.330;2023-05-23T02:20:10;98152.91;;;16.57;100.00
55604;BME280;41468;48.838;9.330;2023-05-23T02:22:37;98150.41;;;16.70;100.00
55604;BME280;41468;48.838;9.330;2023-05-23T02:25:04;98141.94;;;16.54;100.00
55604;BME280;41468;48.838;9.330;2023-05-23T02:27:31;98152.59;;;16.52;100.00
55604;BME280;41468;48.838;9.330;2023-05-23T02:29:58;98152.50;;;16.59;100.00
55604;BME280;41468;48.838;9.330;2023-05-23T02:32:25;98158.28;;;16.68;100.00
55604;BME280;41468;48.838;9.330;2023-05-23T02:34:51;98150.97;;;16.54;100.00
55604;BME280;41468;48.838;9.330;2023-05-23T02:37:26;98155.91;;;16.70;100.00
55604;BME280;41468;48.838;9.330;2023-05-23T02:39:52;98155.22;;;16.63;100.00
55604;BME280;41468;48.838;9.330;2023-05-23T02:42:19;98156.03;;;16.60;100.00
55604;BME280;41468;48.838;9.330;2023-05-23T02:44:46;98153.72;;;16.58;100.00
55604;BME280;41468;48.838;9.330;2023-05-23T02:47:13;98159.94;;;16.66;100.00
55604;BME280;41468;48.838;9.330;2023-05-23T02:49:40;98158.41;;;16.61;100.00
55604;BME280;41468;48.838;9.330;2023-05-23T02:52:06;98163.47;;;16.66;100.00
55604;BME280;41468;48.838;9.330;2023-05-23T02:54:33;98162.19;;;16.74;100.00
55604;BME280;41468;48.838;9.330;2023-05-23T02:57:00;98164.94;;;16.74;100.00
55604;BME280;41468;48.838;9.330;2023-05-23T02:59:26;98169.59;;;16.81;100.00
55604;BME280;41468;48.838;9.330;2023-05-23T03:01:53;98159.59;;;16.94;100.00
55604;BME280;41468;48.838;9.330;2023-05-23T03:04:20;98169.34;;;17.03;100.00
55604;BME280;41468;48.838;9.330;2023-05-23T03:06:47;98168.94;;;17.04;100.00
55604;BME280;41468;48.838;9.330;2023-05-23T03:09:14;98172.41;;;17.08;100.00
55604;BME280;41468;48.838;9.330;2023-05-23T03:11:44;98172.00;;;17.10;100.00
55604;BME280;41468;48.838;9.330;2023-05-23T03:14:11;98165.25;;;17.14;100.00
55604;BME280;41468;48.838;9.330;2023-05-23T03:16:38;98169.94;;;17.17;100.00
55604;BME280;41468;48.838;9.330;2023-05-23T03:19:06;98171.84;;;17.20;100.00
55604;BME280;41468;48.838;9.330;2023-05-23T03:21:33;98177.63;;;17.30;100.00
55604;BME280;41468;48.838;9.330;2023-05-23T03:24:01;98173.31;;;17.29;100.00
55604;BME280;41468;48.838;9.330;2023-05-23T03:26:28;98171.91;;;17.17;100.00
55604;BME280;41468;48.838;9.330;2023-05-23T03:28:55;98176.47;;;17.31;100.00
55604;BME280;41468;48.838;9.330;2023-05-23T03:31:22;98186.66;;;17.34;100.00
55604;BME280;41468;48.838;9.330;2023-05-23T03:33:49;98174.88;;;17.30;100.00
55604;BME280;41468;48.838;9.330;2023-05-23T03:36:16;98180.41;;;17.30;100.00
55604;BME280;41468;48.838;9.330;2023-05-23T03:38:43;98179.56;;;17.33;100.00
55604;BME280;41468;48.838;9.330;2023-05-23T03:41:10;98185.00;;;17.40;100.00
55604;BME280;41468;48.838;9.330;2023-05-23T03:43:37;98183.91;;;17.34;100.00
55604;BME280;41468;48.838;9.330;2023-05-23T03:46:03;98181.06;;;17.37;100.00
55604;BME280;41468;48.838;9.330;2023-05-23T03:48:30;98186.56;;;17.41;100.00
55604;BME280;41468;48.838;9.330;2023-05-23T03:50:57;98190.88;;;17.42;100.00
55604;BME280;41468;48.838;9.330;2023-05-23T03:53:31;98181.38;;;17.43;100.00
55604;BME280;41468;48.838;9.330;2023-05-23T03:56:00;98172.63;;;17.48;100.00
55604;BME280;41468;48.838;9.330;2023-05-23T03:58:27;98181.34;;;17.47;100.00
55604;BME280;41468;48.838;9.330;2023-05-23T04:00:54;98179.78;;;17.45;100.00
55604;BME280;41468;48.838;9.330;2023-05-23T04:03:21;98183.22;;;17.53;100.00
55604;BME280;41468;48.838;9.330;2023-05-23T04:05:48;98184.88;;;17.47;100.00
55604;BME280;41468;48.838;9.330;2023-05-23T04:08:15;98183.38;;;17.42;100.00
55604;BME280;41468;48.838;9.330;2023-05-23T04:10:43;98181.84;;;17.38;100.00
55604;BME280;41468;48.838;9.330;2023-05-23T04:13:09;98187.34;;;17.41;100.00
55604;BME280;41468;48.838;9.330;2023-05-23T04:15:36;98187.84;;;17.33;100.00
55604;BME280;41468;48.838;9.330;2023-05-23T04:18:09;98189.81;;;17.32;100.00
55604;BME280;41468;48.838;9.330;2023-05-23T04:20:36;98188.72;;;17.26;100.00
55604;BME280;41468;48.838;9.330;2023-05-23T04:23:03;98184.31;;;17.32;100.00
55604;BME280;41468;48.838;9.330;2023-05-23T04:25:30;98186.28;;;17.32;100.00
55604;BME280;41468;48.838;9.330;2023-05-23T04:27:56;98191.44;;;17.30;100.00
55604;BME280;41468;48.838;9.330;2023-05-23T04:30:23;98200.53;;;17.27;100.00
55604;BME280;41468;48.838;9.330;2023-05-23T04:32:50;98197.69;;;17.34;100.00
55604;BME280;41468;48.838;9.330;2023-05-23T04:35:17;98196.78;;;17.40;100.00
55604;BME280;41468;48.838;9.330;2023-05-23T04:37:44;98193.25;;;17.40;100.00
55604;BME280;41468;48.838;9.330;2023-05-23T04:40:11;98210.28;;;17.35;100.00
55604;BME280;41468;48.838;9.330;2023-05-23T04:42:39;98203.94;;;17.38;100.00
55604;BME280;41468;48.838;9.330;2023-05-23T04:45:08;98205.88;;;17.41;100.00
55604;BME280;41468;48.838;9.330;2023-05-23T04:47:35;98206.59;;;17.45;100.00
55604;BME280;41468;48.838;9.330;2023-05-23T04:50:03;98209.34;;;17.45;100.00
55604;BME280;41468;48.838;9.330;2023-05-23T04:52:31;98210.09;;;17.49;100.00
55604;BME280;41468;48.838;9.330;2023-05-23T04:54:59;98213.31;;;17.44;100.00
55604;BME280;41468;48.838;9.330;2023-05-23T04:57:27;98209.59;;;17.54;100.00
55604;BME280;41468;48.838;9.330;2023-05-23T04:59:53;98217.84;;;17.58;100.00
55604;BME280;41468;48.838;9.330;2023-05-23T05:02:20;98210.34;;;17.58;100.00
55604;BME280;41468;48.838;9.330;2023-05-23T05:04:47;98219.25;;;17.70;100.00
55604;BME280;41468;48.838;9.330;2023-05-23T05:07:25;98217.63;;;17.72;100.00
55604;BME280;41468;48.838;9.330;2023-05-23T05:09:52;98218.41;;;17.73;100.00
55604;BME280;41468;48.838;9.330;2023-05-23T05:12:18;98226.22;;;17.78;100.00
55604;BME280;41468;48.838;9.330;2023-05-23T05:14:45;98226.16;;;17.85;100.00
55604;BME280;41468;48.838;9.330;2023-05-23T05:17:12;98232.47;;;17.85;100.00
55604;BME280;41468;48.838;9.330;2023-05-23T05:19:38;98232.47;;;17.85;100.00
55604;BME280;41468;48.838;9.330;2023-05-23T05:22:05;98236.00;;;17.86;100.00
55604;BME280;41468;48.838;9.330;2023-05-23T05:24:33;98232.47;;;17.85;100.00
55604;BME280;41468;48.838;9.330;2023-05-23T05:27:00;98239.06;;;17.92;100.00
55604;BME280;41468;48.838;9.330;2023-05-23T05:29:27;98236.72;;;17.90;100.00
55604;BME280;41468;48.838;9.330;2023-05-23T05:31:54;98234.44;;;17.85;100.00
55604;BME280;41468;48.838;9.330;2023-05-23T05:34:21;98241.53;;;17.86;100.00
55604;BME280;41468;48.838;9.330;2023-05-23T05:36:48;98243.50;;;17.85;100.00
55604;BME280;41468;48.838;9.330;2023-05-23T05:39:15;98236.72;;;17.90;100.00
55604;BME280;41468;48.838;9.330;2023-05-23T05:41:42;98235.91;;;17.93;100.00
55604;BME280;41468;48.838;9.330;2023-05-23T05:44:09;98239.75;;;17.99;100.00
55604;BME280;41468;48.838;9.330;2023-05-23T05:46:35;98239.03;;;17.95;100.00
55604;BME280;41468;48.838;9.330;2023-05-23T05:49:13;98243.25;;;18.03;100.00
55604;BME280;41468;48.838;9.330;2023-05-23T05:51:39;98246.19;;;18.16;100.00
55604;BME280;41468;48.838;9.330;2023-05-23T05:54:06;98239.88;;;18.16;100.00
55604;BME280;41468;48.838;9.330;2023-05-23T05:56:33;98242.16;;;18.21;100.00
55604;BME280;41468;48.838;9.330;2023-05-23T05:59:00;98237.09;;;18.16;100.00
55604;BME280;41468;48.838;9.330;2023-05-23T06:01:26;98242.53;;;18.23;100.00
55604;BME280;41468;48.838;9.330;2023-05-23T06:03:53;98244.06;;;18.24;100.00
55604;BME280;41468;48.838;9.330;2023-05-23T06:06:20;98254.06;;;18.18;100.00
55604;BME280;41468;48.838;9.330;2023-05-23T06:08:47;98254.53;;;18.13;100.00
55604;BME280;41468;48.838;9.330;2023-05-23T06:11:14;98255.78;;;18.08;100.00
55604;BME280;41468;48.838;9.330;2023-05-23T06:13:41;98251.41;;;18.10;100.00
55604;BME280;41468;48.838;9.330;2023-05-23T06:16:08;98251.75;;;18.13;100.00
55604;BME280;41468;48.838;9.330;2023-05-23T06:18:34;98250.81;;;18.23;100.00
55604;BME280;41468;48.838;9.330;2023-05-23T06:21:01;98253.09;;;18.28;100.00
55604;BME280;41468;48.838;9.330;2023-05-23T06:23:28;98263.00;;;18.25;100.00
55604;BME280;41468;48.838;9.330;2023-05-23T06:25:55;98253.47;;;18.30;100.00
55604;BME280;41468;48.838;9.330;2023-05-23T06:28:21;98259.88;;;18.23;100.00
55604;BME280;41468;48.838;9.330;2023-05-23T06:30:48;98253.88;;;18.28;100.00
55604;BME280;41468;48.838;9.330;2023-05-23T06:33:15;98259.31;;;18.32;100.00
55604;BME280;41468;48.838;9.330;2023-05-23T06:35:42;98265.69;;;18.29;100.00
55604;BME280;41468;48.838;9.330;2023-05-23T06:38:08;98267.28;;;18.30;100.00
55604;BME280;41468;48.838;9.330;2023-05-23T06:40:35;98269.19;;;18.33;100.00
55604;BME280;41468;48.838;9.330;2023-05-23T06:43:02;98271.19;;;18.32;100.00
55604;BME280;41468;48.838;9.330;2023-05-23T06:45:29;98268.72;;;18.38;100.00
55604;BME280;41468;48.838;9.330;2023-05-23T06:47:55;98264.38;;;18.37;100.00
55604;BME280;41468;48.838;9.330;2023-05-23T06:50:22;98279.72;;;18.42;99.34
55604;BME280;41468;48.838;9.330;2023-05-23T06:52:53;98281.25;;;18.43;99.50
55604;BME280;41468;48.838;9.330;2023-05-23T06:55:21;98287.72;;;18.36;99.42
55604;BME280;41468;48.838;9.330;2023-05-23T06:57:48;98288.31;;;18.47;99.27
55604;BME280;41468;48.838;9.330;2023-05-23T07:00:18;98285.97;;;18.46;100.00
55604;BME280;41468;48.838;9.330;2023-05-23T07:02:45;98289.25;;;18.37;99.69
55604;BME280;41468;48.838;9.330;2023-05-23T07:05:14;98282.84;;;18.44;99.51
55604;BME280;41468;48.838;9.330;2023-05-23T07:07:42;98290.84;;;18.38;99.13
55604;BME280;41468;48.838;9.330;2023-05-23T07:10:09;98289.25;;;18.37;99.25
55604;BME280;41468;48.838;9.330;2023-05-23T07:12:36;98297.22;;;18.35;98.95
55604;BME280;41468;48.838;9.330;2023-05-23T07:15:03;98288.66;;;18.26;99.21
55604;BME280;41468;48.838;9.330;2023-05-23T07:17:30;98296.47;;;18.31;99.13
55604;BME280;41468;48.838;9.330;2023-05-23T07:19:57;98296.41;;;18.35;99.39
55604;BME280;41468;48.838;9.330;2023-05-23T07:22:23;98302.75;;;18.35;100.00
55604;BME280;41468;48.838;9.330;2023-05-23T07:24:50;98310.41;;;18.24;99.27
55604;BME280;41468;48.838;9.330;2023-05-23T07:27:17;98305.47;;;18.12;99.90
55604;BME280;41468;48.838;9.330;2023-05-23T07:29:44;98313.50;;;18.02;99.51
55604;BME280;41468;48.838;9.330;2023-05-23T07:32:10;98308.25;;;17.84;99.56
55604;BME280;41468;48.838;9.330;2023-05-23T07:34:37;98301.94;;;17.84;99.60
55604;BME280;41468;48.838;9.330;2023-05-23T07:37:15;98314.22;;;17.76;100.00
55604;BME280;41468;48.838;9.330;2023-05-23T07:39:41;98318.13;;;17.82;99.86
55604;BME280;41468;48.838;9.330;2023-05-23T07:42:08;98316.00;;;17.93;99.20
55604;BME280;41468;48.838;9.330;2023-05-23T07:44:35;98324.75;;;17.88;98.23
55604;BME280;41468;48.838;9.330;2023-05-23T07:47:02;98323.06;;;17.94;96.52
55604;BME280;41468;48.838;9.330;2023-05-23T07:49:29;98325.28;;;18.06;96.46
55604;BME280;41468;48.838;9.330;2023-05-23T07:51:56;98316.91;;;18.14;95.00
55604;BME280;41468;48.838;9.330;2023-05-23T07:54:23;98318.81;;;18.17;93.83
55604;BME280;41468;48.838;9.330;2023-05-23T07:56:51;98320.50;;;18.34;91.90
55604;BME280;41468;48.838;9.330;2023-05-23T07:59:18;98325.69;;;18.55;91.63
55604;BME280;41468;48.838;9.330;2023-05-23T08:01:45;98320.41;;;18.88;88.88
55604;BME280;41468;48.838;9.330;2023-05-23T08:04:12;98323.94;;;19.32;87.97
55604;BME280;41468;48.838;9.330;2023-05-23T08:06:39;98334.16;;;19.35;84.58
55604;BME280;41468;48.838;9.330;2023-05-23T08:09:17;98328.91;;;19.21;85.10
55604;BME280;41468;48.838;9.330;2023-05-23T08:11:43;98330.56;;;19.15;85.08
55604;BME280;41468;48.838;9.330;2023-05-23T08:14:10;98336.84;;;19.19;84.07
55604;BME280;41468;48.838;9.330;2023-05-23T08:16:37;98335.78;;;19.13;83.88
55604;BME280;41468;48.838;9.330;2023-05-23T08:19:04;98337.19;;;19.21;83.18
55604;BME280;41468;48.838;9.330;2023-05-23T08:21:31;98343.22;;;19.16;84.14
55604;BME280;41468;48.838;9.330;2023-05-23T08:23:58;98343.28;;;19.12;83.08
55604;BME280;41468;48.838;9.330;2023-05-23T08:26:25;98345.59;;;18.94;84.07
55604;BME280;41468;48.838;9.330;2023-05-23T08:28:53;98352.63;;;18.98;82.68
55604;BME280;41468;48.838;9.330;2023-05-23T08:31:20;98353.75;;;18.81;83.62
55604;BME280;41468;48.838;9.330;2023-05-23T08:33:47;98365.88;;;18.87;82.58
55604;BME280;41468;48.838;9.330;2023-05-23T08:36:14;98349.53;;;19.16;82.57
55604;BME280;41468;48.838;9.330;2023-05-23T08:38:41;98350.97;;;19.45;80.71
55604;BME280;41468;48.838;9.330;2023-05-23T08:41:15;98355.16;;;19.53;79.91
55604;BME280;41468;48.838;9.330;2023-05-23T08:43:44;98361.41;;;19.57;80.02
55604;BME280;41468;48.838;9.330;2023-05-23T08:46:12;98361.81;;;19.55;79.32
55604;BME280;41468;48.838;9.330;2023-05-23T08:48:41;98367.81;;;19.54;80.24
55604;BME280;41468;48.838;9.330;2023-05-23T08:51:12;98374.88;;;19.55;78.18
55604;BME280;41468;48.838;9.330;2023-05-23T08:53:41;98373.34;;;19.54;78.58
55604;BME280;41468;48.838;9.330;2023-05-23T08:56:12;98368.50;;;19.58;78.94
55604;BME280;41468;48.838;9.330;2023-05-23T08:58:40;98373.94;;;20.01;76.31
55604;BME280;41468;48.838;9.330;2023-05-23T09:01:10;98368.28;;;20.41;75.12
55604;BME280;41468;48.838;9.330;2023-05-23T09:03:39;98375.16;;;20.53;73.99
55604;BME280;41468;48.838;9.330;2023-05-23T09:06:09;98377.56;;;20.51;73.84
55604;BME280;41468;48.838;9.330;2023-05-23T09:08:36;98383.63;;;20.29;73.54
55604;BME280;41468;48.838;9.330;2023-05-23T09:11:05;98396.50;;;19.83;74.80
55604;BME280;41468;48.838;9.330;2023-05-23T09:13:32;98389.03;;;19.40;77.18
55604;BME280;41468;48.838;9.330;2023-05-23T09:16:03;98390.22;;;19.39;77.63
55604;BME280;41468;48.838;9.330;2023-05-23T09:18:35;98393.69;;;19.24;76.73
55604;BME280;41468;48.838;9.330;2023-05-23T09:21:03;98394.56;;;19.40;76.60
55604;BME280;41468;48.838;9.330;2023-05-23T09:23:31;98388.94;;;19.24;76.95
55604;BME280;41468;48.838;9.330;2023-05-23T09:26:03;98387.03;;;19.21;77.10
55604;BME280;41468;48.838;9.330;2023-05-23T09:28:33;98397.25;;;19.44;76.77
55604;BME280;41468;48.838;9.330;2023-05-23T09:31:01;98398.88;;;19.41;75.71
55604;BME280;41468;48.838;9.330;2023-05-23T09:33:48;98399.94;;;19.48;75.42
55604;BME280;41468;48.838;9.330;2023-05-23T09:36:18;98393.84;;;19.36;75.10
55604;BME280;41468;48.838;9.330;2023-05-23T09:38:46;98401.06;;;19.30;75.79
55604;BME280;41468;48.838;9.330;2023-05-23T09:41:23;98403.56;;;19.25;77.09
55604;BME280;41468;48.838;9.330;2023-05-23T09:43:51;98412.16;;;19.30;76.33
55604;BME280;41468;48.838;9.330;2023-05-23T09:46:20;98407.75;;;19.33;76.71
55604;BME280;41468;48.838;9.330;2023-05-23T09:48:58;98398.75;;;19.49;75.17
55604;BME280;41468;48.838;9.330;2023-05-23T09:51:25;98400.66;;;19.52;75.07
55604;BME280;41468;48.838;9.330;2023-05-23T09:53:53;98411.13;;;19.64;73.77
55604;BME280;41468;48.838;9.330;2023-05-23T09:56:23;98407.31;;;19.78;73.74
55604;BME280;41468;48.838;9.330;2023-05-23T09:58:50;98408.16;;;19.75;73.49
55604;BME280;41468;48.838;9.330;2023-05-23T10:01:18;98411.81;;;19.48;74.26
55604;BME280;41468;48.838;9.330;2023-05-23T10:03:48;98412.53;;;19.52;74.16
55604;BME280;41468;48.838;9.330;2023-05-23T10:06:31;98409.69;;;19.56;73.79
55604;BME280;41468;48.838;9.330;2023-05-23T10:09:04;98412.47;;;19.56;75.37
55604;BME280;41468;48.838;9.330;2023-05-23T10:14:03;98405.53;;;19.68;73.22
55604;BME280;41468;48.838;9.330;2023-05-23T10:19:16;98409.34;;;19.94;71.56
55604;BME280;41468;48.838;9.330;2023-05-23T10:21:49;98408.00;;;20.02;70.53
55604;BME280;41468;48.838;9.330;2023-05-23T10:24:17;98408.84;;;19.99;70.72
55604;BME280;41468;48.838;9.330;2023-05-23T10:26:44;98420.13;;;20.08;69.98
55604;BME280;41468;48.838;9.330;2023-05-23T10:29:11;98417.81;;;19.86;71.12
55604;BME280;41468;48.838;9.330;2023-05-23T10:31:38;98422.03;;;19.75;70.82
55604;BME280;41468;48.838;9.330;2023-05-23T10:34:36;98415.44;;;19.65;70.47
55604;BME280;41468;48.838;9.330;2023-05-23T10:37:06;98416.66;;;19.64;70.76
55604;BME280;41468;48.838;9.330;2023-05-23T10:39:56;98420.13;;;19.48;71.74
55604;BME280;41468;48.838;9.330;2023-05-23T10:45:18;98415.41;;;19.69;71.24
55604;BME280;41468;48.838;9.330;2023-05-23T10:47:58;98413.16;;;19.60;70.89
55604;BME280;41468;48.838;9.330;2023-05-23T10:50:31;98420.81;;;19.52;71.23
55604;BME280;41468;48.838;9.330;2023-05-23T10:53:03;98419.19;;;19.55;70.89
55604;BME280;41468;48.838;9.330;2023-05-23T10:55:35;98414.44;;;19.55;70.28
55604;BME280;41468;48.838;9.330;2023-05-23T10:58:15;98414.88;;;19.54;70.31
55604;BME280;41468;48.838;9.330;2023-05-23T11:00:52;98412.03;;;19.57;70.87
55604;BME280;41468;48.838;9.330;2023-05-23T11:09:02;98419.41;;;19.44;69.63
55604;BME280;41468;48.838;9.330;2023-05-23T11:12:01;98423.25;;;19.50;70.98
55604;BME280;41468;48.838;9.330;2023-05-23T11:19:38;98426.56;;;19.41;69.42
55604;BME280;41468;48.838;9.330;2023-05-23T11:22:08;98434.47;;;19.63;68.39
55604;BME280;41468;48.838;9.330;2023-05-23T11:24:51;98422.94;;;19.45;68.19
55604;BME280;41468;48.838;9.330;2023-05-23T11:27:31;98437.16;;;19.47;68.32
55604;BME280;41468;48.838;9.330;2023-05-23T11:30:08;98437.69;;;19.61;67.09
55604;BME280;41468;48.838;9.330;2023-05-23T11:32:35;98430.75;;;19.73;67.61
55604;BME280;41468;48.838;9.330;2023-05-23T11:35:05;98432.47;;;19.67;66.78
55604;BME280;41468;48.838;9.330;2023-05-23T11:37:33;98420.38;;;19.77;67.26
55604;BME280;41468;48.838;9.330;2023-05-23T11:42:53;98426.16;;;19.63;65.81
55604;BME280;41468;48.838;9.330;2023-05-23T11:45:21;98426.53;;;19.85;65.39
55604;BME280;41468;48.838;9.330;2023-05-23T11:47:48;98428.59;;;20.01;64.33
55604;BME280;41468;48.838;9.330;2023-05-23T11:50:15;98433.50;;;20.13;64.13
55604;BME280;41468;48.838;9.330;2023-05-23T11:52:42;98419.66;;;20.29;62.54
55604;BME280;41468;48.838;9.330;2023-05-23T11:55:09;98421.25;;;20.47;62.66
55604;BME280;41468;48.838;9.330;2023-05-23T11:57:39;98414.56;;;20.44;64.50
55604;BME280;41468;48.838;9.330;2023-05-23T12:00:07;98412.47;;;20.32;63.71
55604;BME280;41468;48.838;9.330;2023-05-23T12:02:38;98420.59;;;20.23;63.48
55604;BME280;41468;48.838;9.330;2023-05-23T12:05:10;98415.78;;;20.43;64.46
55604;BME280;41468;48.838;9.330;2023-05-23T12:07:40;98420.03;;;20.48;63.56
55604;BME280;41468;48.838;9.330;2023-05-23T12:10:10;98418.47;;;20.47;62.74
55604;BME280;41468;48.838;9.330;2023-05-23T12:12:37;98407.94;;;20.74;61.36
55604;BME280;41468;48.838;9.330;2023-05-23T12:15:04;98408.00;;;21.20;61.17
55604;BME280;41468;48.838;9.330;2023-05-23T12:17:31;98414.97;;;21.41;59.30
55604;BME280;41468;48.838;9.330;2023-05-23T12:19:58;98406.13;;;21.30;60.82
55604;BME280;41468;48.838;9.330;2023-05-23T12:22:27;98405.44;;;21.84;61.17
55604;BME280;41468;48.838;9.330;2023-05-23T12:24:55;98406.41;;;21.65;59.34
55604;BME280;41468;48.838;9.330;2023-05-23T12:27:29;98401.16;;;21.54;59.67
55604;BME280;41468;48.838;9.330;2023-05-23T12:30:28;98394.81;;;21.08;60.39
55604;BME280;41468;48.838;9.330;2023-05-23T12:32:55;98396.03;;;21.52;60.82
55604;BME280;41468;48.838;9.330;2023-05-23T12:35:24;98400.94;;;21.90;59.23
55604;BME280;41468;48.838;9.330;2023-05-23T12:37:51;98400.44;;;22.34;57.67
55604;BME280;41468;48.838;9.330;2023-05-23T12:40:20;98387.41;;;22.56;55.43
55604;BME280;41468;48.838;9.330;2023-05-23T12:42:51;98394.19;;;22.68;55.55
55604;BME280;41468;48.838;9.330;2023-05-23T12:45:31;98389.19;;;22.37;55.53
55604;BME280;41468;48.838;9.330;2023-05-23T12:47:59;98391.72;;;22.06;54.64
55604;BME280;41468;48.838;9.330;2023-05-23T12:50:28;98388.03;;;21.96;55.99
55604;BME280;41468;48.838;9.330;2023-05-23T12:52:54;98385.09;;;21.74;57.86
55604;BME280;41468;48.838;9.330;2023-05-23T12:55:21;98372.88;;;21.43;58.70
55604;BME280;41468;48.838;9.330;2023-05-23T12:57:48;98382.88;;;21.40;58.43
55604;BME280;41468;48.838;9.330;2023-05-23T13:00:15;98378.97;;;21.67;58.13
55604;BME280;41468;48.838;9.330;2023-05-23T13:02:42;98376.47;;;22.11;57.96
55604;BME280;41468;48.838;9.330;2023-05-23T13:05:08;98375.06;;;22.57;55.47
55604;BME280;41468;48.838;9.330;2023-05-23T13:07:35;98370.81;;;22.65;55.79
55604;BME280;41468;48.838;9.330;2023-05-23T13:10:03;98376.03;;;22.76;55.39
55604;BME280;41468;48.838;9.330;2023-05-23T13:12:30;98370.31;;;22.92;53.87
55604;BME280;41468;48.838;9.330;2023-05-23T13:14:58;98375.81;;;22.70;53.02
55604;BME280;41468;48.838;9.330;2023-05-23T13:17:25;98370.94;;;22.36;54.37
55604;BME280;41468;48.838;9.330;2023-05-23T13:19:52;98380.34;;;21.88;56.16
55604;BME280;41468;48.838;9.330;2023-05-23T13:22:18;98374.09;;;21.83;56.66
55604;BME280;41468;48.838;9.330;2023-05-23T13:24:45;98384.13;;;21.23;59.12
55604;BME280;41468;48.838;9.330;2023-05-23T13:27:18;98378.59;;;21.06;59.86
55604;BME280;41468;48.838;9.330;2023-05-23T13:29:45;98382.63;;;20.72;60.48